• Join FlightAware (Why Join?)
  • Login
  • US Flag 
07:27AM EDT


 

Airport Tracker/Info


-or-


 

Live Flight TrackerFlight Track Log ✈ EJA922 ✈ 14-Jul-2013 ✈ KRKD - KTEB

Flight Track Log - Related Links

Times and Time Zones

All times are in EDT time to prevent confusion due to time zone crossing. See the EJA922 flight status page for this flight to view local times or setup timezone preferences in your user account.

Time Position Orientation Groundspeed Altitude Reporting Facility
EDT Latitude Longitude Course Direction KTS MPH feet Rate Location/Type
04:56PM 44.0300 -69.2664 245° Southwest 284 327 7,600  Level Boston Center
04:57PM 43.9875 -69.3869 251° West 320 368 11,800 2,220 Climbing Boston Center
04:58PM 43.9608 -69.4894 250° West 338 389 12,100 1,860 Climbing Boston Center
04:59PM 43.9172 -69.6558 250° West 384 442 15,600 2,700 Climbing Boston Center
05:00PM 43.8808 -69.7928 250° West 384 442 17,500 1,680 Climbing Boston Center
05:01PM 43.8444 -69.9383 251° West 394 453 19,000 1,500 Climbing Boston Center
05:02PM 43.8058 -70.0839 250° West 394 453 20,500 1,440 Climbing Boston Center
05:03PM 43.7631 -70.2350 249° West 418 481 21,900 1,380 Climbing Boston Center
05:04PM 43.7222 -70.3947 251° West 437 503 23,300 1,320 Climbing Boston Center
05:05PM 43.6831 -70.5453 250° West 431 496 24,600 1,320 Climbing Boston Center
05:06PM 43.6439 -70.6986 251° West 431 496 26,000 1,260 Climbing Boston Center
05:07PM 43.6003 -70.8575 249° West 431 496 27,200 960 Climbing Boston Center
05:08PM 43.5567 -71.0192 250° West 436 502 28,000 360 Climbing Boston Center
05:09PM 43.5125 -71.1775 249° West 469 540 28,000  Level Boston Center
05:10PM 43.4622 -71.3531 249° West 487 560 28,000  Level Boston Center
05:11PM 43.4117 -71.5311 249° West 498 573 28,000  Level Boston Center
05:12PM 43.3631 -71.7089 249° West 498 573 28,000  Level Boston Center
05:13PM 43.3119 -71.8894 249° West 498 573 28,000  Level Boston Center
05:14PM 43.2606 -72.0753 249° West 512 589 28,000  Level Boston Center
05:15PM 43.2089 -72.2550 249° West 512 589 28,000  Level Boston Center
05:16PM 43.1547 -72.4372 248° West 512 589 28,000  Level Boston Center
05:17PM 43.0942 -72.6392 248° West 512 589 28,000  Level Boston Center
05:18PM 43.0397 -72.8178 247° West 524 603 28,000  Level Boston Center
05:19PM 42.9972 -72.9653 249° West 524 603 28,000 -1,440 Level Boston Center
05:20PM 42.9400 -73.1719 249° West 524 603 25,200 -2,040 Descending Boston Center
05:21PM 42.8908 -73.3356 248° West 509 586 24,000 -1,140 Descending Boston Center
05:22PM 42.8414 -73.5047 248° West 489 563 23,000 -780 Descending Boston Center
05:23PM 42.7897 -73.6708 247° West 489 563 22,500 -1,380 Descending Boston Center
05:25PM 42.7256 -73.8164 239° Southwest 464 534 20,000 -2,280 Descending Boston Center
05:26PM 42.6036 -73.9069 209° Southwest 421 484 17,600 -2,040 Descending Boston Center
05:27PM 42.5003 -73.8200 148° Southeast 317 365 16,000 -840 Descending Boston Center
05:28PM 42.4192 -73.8042 172° South 322 371 16,000  Level Boston Center
05:29PM 42.3453 -73.8981 223° Southwest 310 357 16,000  Level Boston Center
05:30PM 42.2900 -73.9808 228° Southwest 326 375 16,000  Level Boston Center
05:31PM 42.2156 -74.0883 227° Southwest 354 407 16,000  Level Boston Center
05:32PM 42.1369 -74.1789 221° Southwest 367 422 16,000 -180 Level Boston Center
05:33PM 42.0444 -74.2350 204° Southwest 373 429 15,700 -720 Descending Boston Center
05:34PM 41.9497 -74.2881 203° Southwest 368 423 14,600 -960 Descending Boston Center
05:36PM 41.7814 -74.3833 203° Southwest 328 377 12,900 -960 Descending Boston Center
05:37PM 41.7036 -74.4256 202° Southwest 312 359 11,800 -1,320 Descending Boston Center
05:38PM 41.6278 -74.4703 204° Southwest 298 343 10,300 -1,320 Descending Boston Center
05:39PM 41.5539 -74.5122 203° Southwest 298 343 9,200 -1,200 Descending Boston Center
05:40PM 41.4825 -74.5517 202° Southwest 292 336 7,900 -1,140 Descending Boston Center
05:41PM 41.4172 -74.5881 203° Southwest 292 336 7,000 -540 Descending Boston Center
05:41PM 41.3667 -74.6167 203° Southwest 277 319 7,000 -540 Level New York TRACON
05:42PM 41.2833 -74.6333 189° South 279 321 6,100 -960 Descending New York TRACON
05:43PM 41.2000 -74.6167 171° South 284 327 5,100 -1,080 Descending New York TRACON
05:44PM 41.1333 -74.6500 201° Southwest 275 316 4,000 -960 Descending New York TRACON
05:45PM 41.0667 -74.6333 169° South 266 306 3,200 -540 Descending New York TRACON
05:46PM 41.0000 -74.5833 150° Southeast 259 298 3,000 -120 Descending New York TRACON
05:47PM 40.9500 -74.5167 135° Southeast 268 308 3,000  Level New York TRACON
05:48PM 40.9667 -74.4167 78° East 271 312 3,000  Level New York TRACON
05:49PM 40.9833 -74.3167 78° East 274 315 3,000  Level New York TRACON
05:50PM 41.0000 -74.2333 75° East 238 274 3,000 -180 Level New York TRACON
05:51PM 41.0167 -74.1667 72° East 207 238 2,700 -480 Descending New York TRACON
05:52PM 41.0167 -74.0833 90° East 193 222 2,100 -600 Descending New York TRACON